createdAt,value
2017-09-10T00:00:29.121Z,19.00
2017-09-10T00:01:29.846Z,22.00
2017-09-10T00:02:30.565Z,21.00
2017-09-10T00:03:31.286Z,21.00
2017-09-10T00:04:32.003Z,20.00
2017-09-10T00:05:32.725Z,24.00
2017-09-10T00:06:33.445Z,22.00
2017-09-10T00:07:34.169Z,20.00
2017-09-10T00:08:34.890Z,21.00
2017-09-10T00:09:35.610Z,21.00
2017-09-10T00:10:36.330Z,21.00
2017-09-10T00:11:37.053Z,23.00
2017-09-10T00:12:37.795Z,23.00
2017-09-10T00:13:38.515Z,21.00
2017-09-10T00:14:39.234Z,22.00
2017-09-10T00:15:39.954Z,21.00
2017-09-10T00:16:40.675Z,22.00
2017-09-10T00:17:41.396Z,20.00
2017-09-10T00:18:42.114Z,22.00
2017-09-10T00:19:42.837Z,21.00
2017-09-10T00:20:43.560Z,22.00
2017-09-10T00:21:44.277Z,23.00
2017-09-10T00:22:45.000Z,21.00
2017-09-10T00:23:45.717Z,24.00
2017-09-10T00:24:46.438Z,22.00
2017-09-10T00:25:47.157Z,21.00
2017-09-10T00:26:47.877Z,22.00
2017-09-10T00:27:48.598Z,18.00
2017-09-10T00:28:49.325Z,21.00
2017-09-10T00:29:50.039Z,19.00
2017-09-10T00:30:50.786Z,22.00
2017-09-10T00:31:51.509Z,23.00
2017-09-10T00:32:52.229Z,22.00
2017-09-10T00:33:52.948Z,22.00
2017-09-10T00:34:53.671Z,24.00
2017-09-10T00:35:54.410Z,22.00
2017-09-10T00:36:55.154Z,25.00
2017-09-10T00:37:55.875Z,24.00
2017-09-10T00:38:56.597Z,23.00
2017-09-10T00:39:57.319Z,23.00
2017-09-10T00:40:58.037Z,25.00
2017-09-10T00:41:58.779Z,23.00
2017-09-10T00:42:59.500Z,25.00
2017-09-10T00:44:00.222Z,24.00
2017-09-10T00:45:00.942Z,21.00
2017-09-10T00:46:01.662Z,24.00
2017-09-10T00:47:02.383Z,22.00
2017-09-10T00:48:03.101Z,21.00
2017-09-10T00:49:03.831Z,22.00
2017-09-10T00:50:04.542Z,23.00
2017-09-10T00:51:05.263Z,25.00
2017-09-10T00:52:05.982Z,24.00
2017-09-10T00:53:06.703Z,28.00
2017-09-10T00:54:07.444Z,22.00
2017-09-10T00:55:08.166Z,24.00
2017-09-10T00:56:08.892Z,26.00
2017-09-10T00:57:09.631Z,25.00
2017-09-10T00:58:10.352Z,23.00
2017-09-10T00:59:11.074Z,23.00
2017-09-10T01:00:11.793Z,24.00
2017-09-10T01:01:12.521Z,24.00
2017-09-10T01:02:13.260Z,25.00
2017-09-10T01:03:13.978Z,27.00
2017-09-10T01:04:14.699Z,23.00
2017-09-10T01:05:15.418Z,22.00
2017-09-10T01:06:16.141Z,26.00
2017-09-10T01:07:16.861Z,23.00
2017-09-10T01:08:17.580Z,23.00
2017-09-10T01:09:18.325Z,24.00
2017-09-10T01:10:19.043Z,22.00
2017-09-10T01:11:19.786Z,22.00
2017-09-10T01:12:20.506Z,23.00
2017-09-10T01:13:21.228Z,24.00
2017-09-10T01:14:21.946Z,24.00
2017-09-10T01:15:22.667Z,23.00
2017-09-10T01:16:23.387Z,22.00
2017-09-10T01:17:24.109Z,24.00
2017-09-10T01:18:24.853Z,25.00
2017-09-10T01:19:25.574Z,24.00
2017-09-10T01:20:26.292Z,27.00
2017-09-10T01:21:27.035Z,25.00
2017-09-10T01:22:27.757Z,25.00
2017-09-10T01:23:28.476Z,21.00
2017-09-10T01:24:29.216Z,23.00
2017-09-10T01:25:29.959Z,21.00
2017-09-10T01:26:30.678Z,23.00
2017-09-10T01:27:31.400Z,24.00
2017-09-10T01:28:32.120Z,22.00
2017-09-10T01:29:32.843Z,22.00
2017-09-10T01:30:33.558Z,22.00
2017-09-10T01:31:34.281Z,21.00
2017-09-10T01:32:35.002Z,21.00
2017-09-10T01:33:35.721Z,20.00
2017-09-10T01:34:36.443Z,20.00
2017-09-10T01:35:37.162Z,19.00
2017-09-10T01:36:37.884Z,22.00
2017-09-10T01:37:38.604Z,22.00
2017-09-10T01:38:39.324Z,21.00
2017-09-10T01:39:40.048Z,20.00
2017-09-10T01:40:40.788Z,20.00
2017-09-10T01:41:41.508Z,22.00
2017-09-10T01:42:42.227Z,22.00
2017-09-10T01:43:42.973Z,22.00
2017-09-10T01:44:43.692Z,20.00
2017-09-10T01:45:44.414Z,20.00
2017-09-10T01:46:45.139Z,22.00
2017-09-10T01:47:45.855Z,20.00
2017-09-10T01:48:46.575Z,20.00
2017-09-10T01:49:47.295Z,24.00
2017-09-10T01:50:48.019Z,27.00
2017-09-10T01:51:48.739Z,21.00
2017-09-10T01:52:49.481Z,22.00
2017-09-10T01:53:50.200Z,21.00
2017-09-10T01:54:50.921Z,21.00
2017-09-10T01:55:51.641Z,24.00
2017-09-10T01:56:52.360Z,23.00
2017-09-10T01:57:53.103Z,20.00
2017-09-10T01:58:53.829Z,22.00
2017-09-10T01:59:54.541Z,22.00
2017-09-10T02:00:55.265Z,23.00
2017-09-10T02:01:55.986Z,21.00
2017-09-10T02:02:56.728Z,21.00
2017-09-10T02:03:57.453Z,20.00
2017-09-10T02:04:58.171Z,21.00
2017-09-10T02:05:58.889Z,21.00
2017-09-10T02:06:59.631Z,24.00
2017-09-10T02:08:00.350Z,23.00
2017-09-10T02:09:01.074Z,21.00
2017-09-10T02:10:01.794Z,20.00
2017-09-10T02:11:02.538Z,22.00
2017-09-10T02:12:03.258Z,20.00
2017-09-10T02:13:03.976Z,23.00
2017-09-10T02:14:04.718Z,22.00
2017-09-10T02:15:05.440Z,21.00
2017-09-10T02:16:06.159Z,19.00
2017-09-10T02:17:06.901Z,21.00
2017-09-10T02:18:07.619Z,21.00
2017-09-10T02:19:08.365Z,21.00
2017-09-10T02:20:09.084Z,23.00
2017-09-10T02:21:09.805Z,27.00
2017-09-10T02:22:10.547Z,22.00
2017-09-10T02:23:11.266Z,21.00
2017-09-10T02:24:11.987Z,22.00
2017-09-10T02:25:12.709Z,23.00
2017-09-10T02:26:13.432Z,23.00
2017-09-10T02:27:14.173Z,24.00
2017-09-10T02:28:14.892Z,21.00
2017-09-10T02:29:15.638Z,20.00
2017-09-10T02:30:16.359Z,21.00
2017-09-10T02:31:17.080Z,22.00
2017-09-10T02:32:17.824Z,21.00
2017-09-10T02:33:18.544Z,23.00
2017-09-10T02:34:19.264Z,20.00
2017-09-10T02:35:19.985Z,25.00
2017-09-10T02:36:20.729Z,21.00
2017-09-10T02:37:21.450Z,23.00
2017-09-10T02:38:22.193Z,23.00
2017-09-10T02:39:22.935Z,22.00
2017-09-10T02:40:23.673Z,20.00
2017-09-10T02:41:24.400Z,24.00
2017-09-10T02:42:25.114Z,24.00
2017-09-10T02:43:25.836Z,25.00
2017-09-10T02:44:26.557Z,23.00
2017-09-10T02:45:27.278Z,22.00
2017-09-10T02:46:27.997Z,24.00
2017-09-10T02:47:28.718Z,24.00
2017-09-10T02:48:29.443Z,21.00
2017-09-10T02:49:30.173Z,22.00
2017-09-10T02:50:30.901Z,23.00
2017-09-10T02:51:31.621Z,21.00
2017-09-10T02:52:32.364Z,22.00
2017-09-10T02:53:33.087Z,20.00
2017-09-10T02:54:33.804Z,22.00
2017-09-10T02:55:34.526Z,23.00
2017-09-10T02:56:35.246Z,23.00
2017-09-10T02:57:35.988Z,23.00
2017-09-10T02:58:36.709Z,23.00
2017-09-10T02:59:37.427Z,27.00
2017-09-10T03:00:38.146Z,22.00
2017-09-10T03:01:38.868Z,25.00
2017-09-10T03:02:39.612Z,23.00
2017-09-10T03:03:40.333Z,24.00
2017-09-10T03:04:41.080Z,21.00
2017-09-10T03:05:41.797Z,22.00
2017-09-10T03:06:42.540Z,25.00
2017-09-10T03:07:43.262Z,24.00
2017-09-10T03:08:43.982Z,25.00
2017-09-10T03:09:44.702Z,23.00
2017-09-10T03:10:45.420Z,27.00
2017-09-10T03:11:46.139Z,26.00
2017-09-10T03:12:46.879Z,23.00
2017-09-10T03:13:47.599Z,22.00
2017-09-10T03:14:48.341Z,24.00
2017-09-10T03:15:49.063Z,23.00
2017-09-10T03:16:49.784Z,24.00
2017-09-10T03:17:50.522Z,23.00
2017-09-10T03:18:51.246Z,24.00
2017-09-10T03:19:51.963Z,25.00
2017-09-10T03:20:52.705Z,27.00
2017-09-10T03:21:53.446Z,21.00
2017-09-10T03:22:54.189Z,24.00
2017-09-10T03:23:54.933Z,25.00
2017-09-10T03:24:55.675Z,25.00
2017-09-10T03:25:56.393Z,23.00
2017-09-10T03:26:57.115Z,26.00
2017-09-10T03:27:57.835Z,25.00
2017-09-10T03:28:58.554Z,23.00
2017-09-10T03:29:59.294Z,24.00
2017-09-10T03:31:00.017Z,26.00
2017-09-10T03:32:00.760Z,22.00
2017-09-10T03:33:01.480Z,23.00
2017-09-10T03:34:02.197Z,27.00
2017-09-10T03:35:02.916Z,23.00
2017-09-10T03:36:03.638Z,23.00
2017-09-10T03:37:04.381Z,22.00
2017-09-10T03:38:05.100Z,23.00
2017-09-10T03:39:05.822Z,22.00
2017-09-10T03:40:06.563Z,25.00
2017-09-10T03:41:07.289Z,24.00
2017-09-10T03:42:08.005Z,25.00
2017-09-10T03:43:08.747Z,22.00
2017-09-10T03:44:09.471Z,19.00
2017-09-10T03:45:10.187Z,26.00
2017-09-10T03:46:10.908Z,24.00
2017-09-10T03:47:11.629Z,25.00
2017-09-10T03:48:12.348Z,23.00
2017-09-10T03:49:13.070Z,24.00
2017-09-10T03:50:13.816Z,23.00
2017-09-10T03:51:14.559Z,20.00
2017-09-10T03:52:15.278Z,23.00
2017-09-10T03:53:15.996Z,20.00
2017-09-10T03:54:16.719Z,23.00
2017-09-10T03:55:17.435Z,22.00
2017-09-10T03:56:18.158Z,21.00
2017-09-10T03:57:18.904Z,23.00
2017-09-10T03:58:19.624Z,20.00
2017-09-10T03:59:20.339Z,21.00
2017-09-10T04:00:21.072Z,21.00
2017-09-10T04:01:21.777Z,24.00
2017-09-10T04:02:22.521Z,25.00
2017-09-10T04:03:23.261Z,20.00
2017-09-10T04:04:24.004Z,25.00
2017-09-10T04:05:24.748Z,18.00
2017-09-10T04:06:25.466Z,22.00
2017-09-10T04:07:26.188Z,22.00
2017-09-10T04:08:26.906Z,21.00
2017-09-10T04:09:27.627Z,20.00
2017-09-10T04:10:28.345Z,20.00
2017-09-10T04:11:29.066Z,22.00
2017-09-10T04:12:29.810Z,22.00
2017-09-10T04:13:30.530Z,21.00
2017-09-10T04:14:31.248Z,20.00
2017-09-10T04:15:31.967Z,21.00
2017-09-10T04:16:32.687Z,20.00
2017-09-10T04:17:33.410Z,22.00
2017-09-10T04:18:34.131Z,21.00
2017-09-10T04:19:34.881Z,20.00
2017-09-10T04:20:35.594Z,24.00
2017-09-10T04:21:36.337Z,20.00
2017-09-10T04:22:37.058Z,22.00
2017-09-10T04:23:37.791Z,18.00
2017-09-10T04:24:38.496Z,17.00
2017-09-10T04:25:39.239Z,21.00
2017-09-10T04:26:39.984Z,19.00
2017-09-10T04:27:40.703Z,21.00
2017-09-10T04:28:41.462Z,22.00
2017-09-10T04:29:42.170Z,19.00
2017-09-10T04:30:42.923Z,22.00
2017-09-10T04:31:43.632Z,20.00
2017-09-10T04:32:44.351Z,20.00
2017-09-10T04:33:45.069Z,22.00
2017-09-10T04:34:45.811Z,22.00
2017-09-10T04:35:46.534Z,20.00
2017-09-10T04:36:47.255Z,20.00
2017-09-10T04:37:47.977Z,21.00
2017-09-10T04:38:48.696Z,19.00
2017-09-10T04:39:49.416Z,19.00
2017-09-10T04:40:50.138Z,22.00
2017-09-10T04:41:50.861Z,19.00
2017-09-10T04:42:51.599Z,18.00
2017-09-10T04:43:52.340Z,19.00
2017-09-10T04:44:53.063Z,17.00
2017-09-10T04:45:53.812Z,22.00
2017-09-10T04:46:54.538Z,18.00
2017-09-10T04:47:55.260Z,21.00
2017-09-10T04:48:55.982Z,19.00
2017-09-10T04:49:56.701Z,20.00
2017-09-10T04:50:57.424Z,20.00
2017-09-10T04:51:58.166Z,19.00
2017-09-10T04:52:58.888Z,20.00
2017-09-10T04:53:59.607Z,19.00
2017-09-10T04:55:00.329Z,22.00
2017-09-10T04:56:01.052Z,19.00
2017-09-10T04:57:01.797Z,18.00
2017-09-10T04:58:02.520Z,21.00
2017-09-10T04:59:03.259Z,20.00
2017-09-10T05:00:03.982Z,23.00
2017-09-10T05:01:04.705Z,19.00
2017-09-10T05:02:05.426Z,22.00
2017-09-10T05:03:06.151Z,20.00
2017-09-10T05:04:06.894Z,21.00
2017-09-10T05:05:07.616Z,22.00
2017-09-10T05:06:08.341Z,19.00
2017-09-10T05:07:09.065Z,20.00
2017-09-10T05:08:09.786Z,21.00
2017-09-10T05:09:10.512Z,16.00
2017-09-10T05:10:11.236Z,18.00
2017-09-10T05:11:11.957Z,18.00
2017-09-10T05:12:12.682Z,20.00
2017-09-10T05:13:13.405Z,20.00
2017-09-10T05:14:14.128Z,16.00
2017-09-10T05:15:14.875Z,18.00
2017-09-10T05:16:15.599Z,17.00
2017-09-10T05:17:16.322Z,18.00
2017-09-10T05:18:17.044Z,21.00
2017-09-10T05:19:17.769Z,18.00
2017-09-10T05:20:18.495Z,21.00
2017-09-10T05:21:19.217Z,16.00
2017-09-10T05:22:19.962Z,19.00
2017-09-10T05:23:20.687Z,19.00
2017-09-10T05:24:21.412Z,20.00
2017-09-10T05:25:22.155Z,18.00
2017-09-10T05:26:22.898Z,16.00
2017-09-10T05:27:23.627Z,18.00
2017-09-10T05:28:24.353Z,16.00
2017-09-10T05:29:25.076Z,16.00
2017-09-10T05:30:25.802Z,17.00
2017-09-10T05:31:26.524Z,17.00
2017-09-10T05:32:27.248Z,20.00
2017-09-10T05:33:27.992Z,18.00
2017-09-10T05:34:28.738Z,17.00
2017-09-10T05:35:29.461Z,17.00
2017-09-10T05:36:30.185Z,16.00
2017-09-10T05:37:30.912Z,18.00
2017-09-10T05:38:31.658Z,19.00
2017-09-10T05:39:32.404Z,17.00
2017-09-10T05:40:33.127Z,17.00
2017-09-10T05:41:33.875Z,16.00
2017-09-10T05:42:34.623Z,15.00
2017-09-10T05:43:35.344Z,18.00
2017-09-10T05:44:36.071Z,14.00
2017-09-10T05:45:36.797Z,16.00
2017-09-10T05:46:37.543Z,17.00
2017-09-10T05:47:38.270Z,16.00
2017-09-10T05:48:38.997Z,17.00
2017-09-10T05:49:39.745Z,15.00
2017-09-10T05:50:40.468Z,17.00
2017-09-10T05:51:41.192Z,15.00
2017-09-10T05:52:41.943Z,16.00
2017-09-10T05:53:42.667Z,13.00
2017-09-10T05:54:43.394Z,13.00
2017-09-10T05:55:44.119Z,15.00
2017-09-10T05:56:44.844Z,14.00
2017-09-10T05:57:45.596Z,14.00
2017-09-10T05:58:46.346Z,15.00
2017-09-10T05:59:47.070Z,15.00
2017-09-10T06:00:47.798Z,14.00
2017-09-10T06:01:48.529Z,15.00
2017-09-10T06:02:49.274Z,19.00
2017-09-10T06:03:50.005Z,14.00
2017-09-10T06:04:50.731Z,14.00
2017-09-10T06:05:51.456Z,16.00
2017-09-10T06:06:52.186Z,13.00
2017-09-10T06:07:52.912Z,15.00
2017-09-10T06:08:53.638Z,13.00
2017-09-10T06:09:54.364Z,16.00
2017-09-10T06:10:55.111Z,13.00
2017-09-10T06:11:55.860Z,14.00
2017-09-10T06:12:56.589Z,13.00
2017-09-10T06:13:57.314Z,14.00
2017-09-10T06:14:58.064Z,16.00
2017-09-10T06:15:58.791Z,14.00
2017-09-10T06:16:59.517Z,15.00
2017-09-10T06:18:00.246Z,14.00
2017-09-10T06:19:00.994Z,14.00
2017-09-10T06:20:01.744Z,12.00
2017-09-10T06:21:02.475Z,12.00
2017-09-10T06:22:03.224Z,13.00
2017-09-10T06:23:03.952Z,12.00
2017-09-10T06:24:04.682Z,11.00
2017-09-10T06:25:05.432Z,12.00
2017-09-10T06:26:06.157Z,12.00
2017-09-10T06:27:06.887Z,13.00
2017-09-10T06:28:07.616Z,10.00
2017-09-10T06:29:08.367Z,12.00
2017-09-10T06:30:09.098Z,12.00
2017-09-10T06:31:09.830Z,11.00
2017-09-10T06:32:10.557Z,13.00
2017-09-10T06:33:11.308Z,12.00
2017-09-10T06:34:12.037Z,8.00
2017-09-10T06:35:12.767Z,13.00
2017-09-10T06:36:13.518Z,11.00
2017-09-10T06:37:14.248Z,10.00
2017-09-10T06:38:15.002Z,11.00
2017-09-10T06:39:15.756Z,11.00
2017-09-10T06:40:16.486Z,11.00
2017-09-10T06:41:17.214Z,12.00
2017-09-10T06:42:17.944Z,12.00
2017-09-10T06:43:18.676Z,11.00
2017-09-10T06:44:19.406Z,10.00
2017-09-10T06:45:20.132Z,11.00
2017-09-10T06:46:20.861Z,11.00
2017-09-10T06:47:21.621Z,11.00
2017-09-10T06:48:22.365Z,11.00
2017-09-10T06:49:23.117Z,11.00
2017-09-10T06:50:23.848Z,10.00
2017-09-10T06:51:24.614Z,12.00
2017-09-10T06:52:25.346Z,11.00
2017-09-10T06:53:26.095Z,11.00
2017-09-10T06:54:26.828Z,11.00
2017-09-10T06:55:27.556Z,10.00
2017-09-10T06:56:28.289Z,9.00
2017-09-10T06:57:29.019Z,11.00
2017-09-10T06:58:29.745Z,9.00
2017-09-10T06:59:30.476Z,11.00
2017-09-10T07:00:31.205Z,9.00
2017-09-10T07:01:31.939Z,11.00
2017-09-10T07:02:32.667Z,12.00
2017-09-10T07:03:33.420Z,11.00
2017-09-10T07:04:34.151Z,10.00
2017-09-10T07:05:34.881Z,8.00
2017-09-10T07:06:35.618Z,9.00
2017-09-10T07:07:36.350Z,11.00
2017-09-10T07:08:37.104Z,10.00
2017-09-10T07:09:37.840Z,10.00
2017-09-10T07:10:38.573Z,10.00
2017-09-10T07:11:39.327Z,11.00
2017-09-10T07:12:40.058Z,10.00
2017-09-10T07:13:40.792Z,10.00
2017-09-10T07:14:41.526Z,9.00
2017-09-10T07:15:42.259Z,13.00
2017-09-10T07:16:42.992Z,11.00
2017-09-10T07:17:43.749Z,9.00
2017-09-10T07:18:44.480Z,8.00
2017-09-10T07:19:45.216Z,8.00
2017-09-10T07:20:45.974Z,10.00
2017-09-10T07:21:46.709Z,9.00
2017-09-10T07:22:47.440Z,10.00
2017-09-10T07:23:48.176Z,11.00
2017-09-10T07:24:48.961Z,8.00
2017-09-10T07:25:49.714Z,10.00
2017-09-10T07:26:50.450Z,9.00
2017-09-10T07:27:51.188Z,9.00
2017-09-10T07:28:51.921Z,9.00
2017-09-10T07:29:52.678Z,10.00
2017-09-10T07:30:53.410Z,11.00
2017-09-10T07:31:54.146Z,8.00
2017-09-10T07:32:54.881Z,9.00
2017-09-10T07:33:55.612Z,8.00
2017-09-10T07:34:56.353Z,9.00
2017-09-10T07:35:57.078Z,8.00
2017-09-10T07:36:57.816Z,9.00
2017-09-10T07:37:58.570Z,10.00
2017-09-10T07:38:59.308Z,10.00
2017-09-10T07:40:00.039Z,12.00
2017-09-10T07:41:00.774Z,10.00
2017-09-10T07:42:01.509Z,9.00
2017-09-10T07:43:02.246Z,10.00
2017-09-10T07:44:02.984Z,9.00
2017-09-10T07:45:03.742Z,11.00
2017-09-10T07:46:04.475Z,9.00
2017-09-10T07:47:05.210Z,9.00
2017-09-10T07:48:05.944Z,11.00
2017-09-10T07:49:06.700Z,10.00
2017-09-10T07:50:07.437Z,8.00
2017-09-10T07:51:08.173Z,11.00
2017-09-10T07:52:08.905Z,9.00
2017-09-10T07:53:09.641Z,10.00
2017-09-10T07:54:10.378Z,10.00
2017-09-10T07:55:11.114Z,9.00
2017-09-10T07:56:11.849Z,9.00
2017-09-10T07:57:12.583Z,8.00
2017-09-10T07:58:13.319Z,10.00
2017-09-10T07:59:14.053Z,9.00
2017-09-10T08:00:14.787Z,8.00
2017-09-10T08:01:15.522Z,8.00
2017-09-10T08:02:16.257Z,8.00
2017-09-10T08:03:16.990Z,8.00
2017-09-10T08:04:17.725Z,9.00
2017-09-10T08:05:18.487Z,8.00
2017-09-10T08:06:19.245Z,9.00
2017-09-10T08:07:19.978Z,8.00
2017-09-10T08:08:20.732Z,9.00
2017-09-10T08:09:21.473Z,9.00
2017-09-10T08:10:22.206Z,8.00
2017-09-10T08:11:22.942Z,8.00
2017-09-10T08:12:23.685Z,9.00
2017-09-10T08:13:24.416Z,7.00
2017-09-10T08:14:25.228Z,7.00
2017-09-10T08:15:25.965Z,8.00
2017-09-10T08:16:26.701Z,8.00
2017-09-10T08:17:27.461Z,7.00
2017-09-10T08:18:28.224Z,7.00
2017-09-10T08:19:28.986Z,7.00
2017-09-10T08:20:29.725Z,8.00
2017-09-10T08:21:30.463Z,8.00
2017-09-10T08:22:31.202Z,6.00
2017-09-10T08:23:31.950Z,7.00
2017-09-10T08:24:32.680Z,7.00
2017-09-10T08:25:33.420Z,7.00
2017-09-10T08:26:34.172Z,6.00
2017-09-10T08:27:34.912Z,7.00
2017-09-10T08:28:35.651Z,5.00
2017-09-10T08:29:36.461Z,5.00
2017-09-10T08:30:37.229Z,5.00
2017-09-10T08:31:37.996Z,5.00
2017-09-10T08:32:38.758Z,6.00
2017-09-10T08:33:39.500Z,6.00
2017-09-10T08:34:40.266Z,5.00
2017-09-10T08:35:41.035Z,4.00
2017-09-10T08:36:41.772Z,6.00
2017-09-10T08:37:42.512Z,5.00
2017-09-10T08:38:43.252Z,5.00
2017-09-10T08:39:43.996Z,5.00
2017-09-10T08:40:44.760Z,6.00
2017-09-10T08:41:45.499Z,6.00
2017-09-10T08:42:46.236Z,5.00
2017-09-10T08:43:46.974Z,5.00
2017-09-10T08:44:47.713Z,6.00
2017-09-10T08:45:48.448Z,5.00
2017-09-10T08:46:49.186Z,6.00
2017-09-10T08:47:49.921Z,5.00
2017-09-10T08:48:50.656Z,8.00
2017-09-10T08:49:51.392Z,6.00
2017-09-10T08:50:52.214Z,6.00
2017-09-10T08:51:52.969Z,6.00
2017-09-10T08:52:53.704Z,6.00
2017-09-10T08:53:54.447Z,5.00
2017-09-10T08:54:55.174Z,7.00
2017-09-10T08:55:56.009Z,7.00
2017-09-10T08:56:56.746Z,7.00
2017-09-10T08:57:57.480Z,7.00
2017-09-10T08:58:58.213Z,6.00
2017-09-10T08:59:58.950Z,6.00
2017-09-10T09:00:59.710Z,6.00
2017-09-10T09:02:00.451Z,6.00
2017-09-10T09:03:01.188Z,6.00
2017-09-10T09:04:01.923Z,6.00
2017-09-10T09:05:02.661Z,6.00
2017-09-10T09:06:03.401Z,6.00
2017-09-10T09:07:04.138Z,7.00
2017-09-10T09:08:04.875Z,7.00
2017-09-10T09:09:05.636Z,6.00
2017-09-10T09:10:06.373Z,7.00
2017-09-10T09:11:07.134Z,7.00
2017-09-10T09:12:07.872Z,6.00
2017-09-10T09:13:08.616Z,6.00
2017-09-10T09:14:09.351Z,7.00
2017-09-10T09:15:10.090Z,5.00
2017-09-10T09:16:10.849Z,6.00
2017-09-10T09:17:11.587Z,6.00
2017-09-10T09:18:12.344Z,6.00
2017-09-10T09:19:13.086Z,6.00
2017-09-10T09:20:13.817Z,6.00
2017-09-10T09:21:14.556Z,5.00
2017-09-10T09:22:15.289Z,5.00
2017-09-10T09:23:16.024Z,4.00
2017-09-10T09:24:16.761Z,5.00
2017-09-10T09:25:17.500Z,5.00
2017-09-10T09:26:18.262Z,5.00
2017-09-10T09:27:18.998Z,4.00
2017-09-10T09:28:19.736Z,4.00
2017-09-10T09:29:20.475Z,5.00
2017-09-10T09:30:21.231Z,4.00
2017-09-10T09:31:21.963Z,3.00
2017-09-10T09:32:22.722Z,4.00
2017-09-10T09:33:23.459Z,4.00
2017-09-10T09:34:24.193Z,3.00
2017-09-10T09:35:24.928Z,4.00
2017-09-10T09:36:25.663Z,5.00
2017-09-10T09:37:26.426Z,4.00
2017-09-10T09:38:27.184Z,4.00
2017-09-10T09:39:27.918Z,5.00
2017-09-10T09:40:28.676Z,5.00
2017-09-10T09:41:29.410Z,5.00
2017-09-10T09:42:30.147Z,4.00
2017-09-10T09:43:30.885Z,3.00
2017-09-10T09:44:31.627Z,4.00
2017-09-10T09:45:32.366Z,4.00
2017-09-10T09:46:33.106Z,3.00
2017-09-10T09:47:33.845Z,4.00
2017-09-10T09:48:34.589Z,4.00
2017-09-10T09:49:35.331Z,4.00
2017-09-10T09:50:36.071Z,3.00
2017-09-10T09:51:36.815Z,4.00
2017-09-10T09:52:37.556Z,3.00
2017-09-10T09:53:38.298Z,3.00
2017-09-10T09:54:39.058Z,4.00
2017-09-10T09:55:39.798Z,4.00
2017-09-10T09:56:40.538Z,4.00
2017-09-10T09:57:41.279Z,3.00
2017-09-10T09:58:42.016Z,3.00
2017-09-10T09:59:42.755Z,3.00
2017-09-10T10:00:43.516Z,2.00
2017-09-10T10:01:44.256Z,3.00
2017-09-10T10:02:44.995Z,4.00
2017-09-10T10:03:45.735Z,4.00
2017-09-10T10:04:46.480Z,3.00
2017-09-10T10:05:47.223Z,3.00
2017-09-10T10:06:47.966Z,4.00
2017-09-10T10:07:48.708Z,4.00
2017-09-10T10:08:49.452Z,3.00
2017-09-10T10:09:50.193Z,2.00
2017-09-10T10:10:50.935Z,4.00
2017-09-10T10:11:51.681Z,3.00
2017-09-10T10:12:52.420Z,2.00
2017-09-10T10:13:53.156Z,3.00
2017-09-10T10:14:53.895Z,4.00
2017-09-10T10:15:54.640Z,4.00
2017-09-10T10:16:55.379Z,3.00
2017-09-10T10:17:56.123Z,4.00
2017-09-10T10:18:56.860Z,3.00
2017-09-10T10:19:57.599Z,3.00
2017-09-10T10:20:58.337Z,2.00
2017-09-10T10:21:59.079Z,3.00
2017-09-10T10:22:59.818Z,2.00
2017-09-10T10:24:00.559Z,4.00
2017-09-10T10:25:01.304Z,3.00
2017-09-10T10:26:02.037Z,3.00
2017-09-10T10:27:02.800Z,3.00
2017-09-10T10:28:03.534Z,3.00
2017-09-10T10:29:04.277Z,3.00
2017-09-10T10:30:05.021Z,3.00
2017-09-10T10:31:05.762Z,3.00
2017-09-10T10:32:06.504Z,3.00
2017-09-10T10:33:07.268Z,3.00
2017-09-10T10:34:08.012Z,3.00
2017-09-10T10:35:08.758Z,3.00
2017-09-10T10:36:09.495Z,3.00
2017-09-10T10:37:10.242Z,5.00
2017-09-10T10:38:10.980Z,3.00
2017-09-10T10:39:11.726Z,3.00
2017-09-10T10:40:12.461Z,3.00
2017-09-10T10:41:13.226Z,7.00
2017-09-10T10:42:13.966Z,3.00
2017-09-10T10:43:14.726Z,3.00
2017-09-10T10:44:15.464Z,3.00
2017-09-10T10:45:16.199Z,4.00
2017-09-10T10:46:16.941Z,3.00
2017-09-10T10:47:17.675Z,4.00
2017-09-10T10:48:18.410Z,3.00
2017-09-10T10:49:19.147Z,3.00
2017-09-10T10:50:19.883Z,3.00
2017-09-10T10:51:20.616Z,2.00
2017-09-10T10:52:21.350Z,3.00
2017-09-10T10:53:22.087Z,3.00
2017-09-10T10:54:22.822Z,4.00
2017-09-10T10:55:23.584Z,3.00
2017-09-10T10:56:24.321Z,3.00
2017-09-10T10:57:25.065Z,3.00
2017-09-10T10:58:25.827Z,3.00
2017-09-10T10:59:26.572Z,4.00
2017-09-10T11:00:27.317Z,3.00
2017-09-10T11:01:28.078Z,3.00
2017-09-10T11:02:28.826Z,2.00
2017-09-10T11:03:29.559Z,2.00
2017-09-10T11:04:30.299Z,2.00
2017-09-10T11:05:31.042Z,3.00
2017-09-10T11:06:31.802Z,3.00
2017-09-10T11:07:32.549Z,3.00
2017-09-10T11:08:33.311Z,3.00
2017-09-10T11:09:34.054Z,3.00
2017-09-10T11:10:34.796Z,3.00
2017-09-10T11:11:35.536Z,2.00
2017-09-10T11:12:36.283Z,3.00
2017-09-10T11:13:37.025Z,3.00
2017-09-10T11:14:37.766Z,2.00
2017-09-10T11:15:38.530Z,3.00
2017-09-10T11:16:39.276Z,2.00
2017-09-10T11:17:40.015Z,2.00
2017-09-10T11:18:40.755Z,2.00
2017-09-10T11:19:41.508Z,4.00
2017-09-10T11:20:42.241Z,2.00
2017-09-10T11:21:42.982Z,2.00
2017-09-10T11:22:43.725Z,2.00
2017-09-10T11:23:44.470Z,2.00
2017-09-10T11:24:45.238Z,2.00
2017-09-10T11:25:45.996Z,3.00
2017-09-10T11:26:46.755Z,2.00
2017-09-10T11:27:47.497Z,3.00
2017-09-10T11:28:48.234Z,3.00
2017-09-10T11:29:48.971Z,3.00
2017-09-10T11:30:49.711Z,2.00
2017-09-10T11:31:50.469Z,3.00
2017-09-10T11:32:51.228Z,3.00
2017-09-10T11:33:51.967Z,2.00
2017-09-10T11:34:52.699Z,2.00
2017-09-10T11:35:53.436Z,3.00
2017-09-10T11:36:54.176Z,2.00
2017-09-10T11:37:54.910Z,2.00
2017-09-10T11:38:55.647Z,3.00
2017-09-10T11:39:56.390Z,3.00
2017-09-10T11:40:57.126Z,4.00
2017-09-10T11:41:57.887Z,3.00
2017-09-10T11:42:58.646Z,3.00
2017-09-10T11:43:59.381Z,3.00
2017-09-10T11:45:00.114Z,2.00
2017-09-10T11:46:00.849Z,3.00
2017-09-10T11:47:01.579Z,4.00
2017-09-10T11:48:02.311Z,2.00
2017-09-10T11:49:03.045Z,2.00
2017-09-10T11:50:03.775Z,3.00
2017-09-10T11:51:04.505Z,2.00
2017-09-10T11:52:05.239Z,3.00
2017-09-10T11:53:05.972Z,2.00
2017-09-10T11:54:06.701Z,2.00
2017-09-10T11:55:07.432Z,3.00
2017-09-10T11:56:08.164Z,3.00
2017-09-10T11:57:08.922Z,3.00
2017-09-10T11:58:09.652Z,3.00
2017-09-10T11:59:10.386Z,3.00
2017-09-10T12:00:11.117Z,2.00
2017-09-10T12:01:11.847Z,3.00
2017-09-10T12:02:12.579Z,3.00
2017-09-10T12:03:13.309Z,4.00
2017-09-10T12:04:14.041Z,2.00
2017-09-10T12:05:14.769Z,2.00
2017-09-10T12:06:15.513Z,3.00
2017-09-10T12:07:16.235Z,3.00
2017-09-10T12:08:16.965Z,2.00
2017-09-10T12:09:17.701Z,3.00
2017-09-10T12:10:18.429Z,3.00
2017-09-10T12:11:19.159Z,3.00
2017-09-10T12:12:19.911Z,3.00
2017-09-10T12:13:20.642Z,3.00
2017-09-10T12:14:21.370Z,3.00
2017-09-10T12:15:22.102Z,3.00
2017-09-10T12:16:22.829Z,3.00
2017-09-10T12:17:23.562Z,5.00
2017-09-10T12:18:24.294Z,6.00
2017-09-10T12:19:25.022Z,2.00
2017-09-10T12:20:25.774Z,3.00
2017-09-10T12:21:26.503Z,3.00
2017-09-10T12:22:27.255Z,3.00
2017-09-10T12:23:27.982Z,3.00
2017-09-10T12:24:28.711Z,5.00
2017-09-10T12:25:29.445Z,3.00
2017-09-10T12:26:30.169Z,2.00
2017-09-10T12:27:30.900Z,3.00
2017-09-10T12:28:31.628Z,3.00
2017-09-10T12:29:32.358Z,3.00
2017-09-10T12:30:33.086Z,3.00
2017-09-10T12:31:33.816Z,3.00
2017-09-10T12:32:34.568Z,3.00
2017-09-10T12:33:35.296Z,3.00
2017-09-10T12:34:36.050Z,3.00
2017-09-10T12:35:36.781Z,3.00
2017-09-10T12:36:37.511Z,3.00
2017-09-10T12:37:38.240Z,4.00
2017-09-10T12:38:38.975Z,4.00
2017-09-10T12:39:39.699Z,4.00
2017-09-10T12:40:40.433Z,4.00
2017-09-10T12:41:41.160Z,4.00
2017-09-10T12:42:41.889Z,3.00
2017-09-10T12:43:42.615Z,3.00
2017-09-10T12:44:43.345Z,3.00
2017-09-10T12:45:44.097Z,4.00
2017-09-10T12:46:44.849Z,3.00
2017-09-10T12:47:45.581Z,3.00
2017-09-10T12:48:46.310Z,5.00
2017-09-10T12:49:47.041Z,3.00
2017-09-10T12:50:47.771Z,4.00
2017-09-10T12:51:48.503Z,3.00
2017-09-10T12:52:49.231Z,4.00
2017-09-10T12:53:49.963Z,4.00
2017-09-10T12:54:50.697Z,4.00
2017-09-10T12:55:51.456Z,4.00
2017-09-10T12:56:52.173Z,3.00
2017-09-10T12:57:52.907Z,3.00
2017-09-10T12:58:53.636Z,4.00
2017-09-10T12:59:54.367Z,4.00
2017-09-10T13:00:55.099Z,4.00
2017-09-10T13:01:55.833Z,3.00
2017-09-10T13:02:56.558Z,4.00
2017-09-10T13:03:57.291Z,4.00
2017-09-10T13:04:58.019Z,3.00
2017-09-10T13:05:58.753Z,3.00
2017-09-10T13:06:59.484Z,3.00
2017-09-10T13:08:00.213Z,3.00
2017-09-10T13:09:00.944Z,3.00
2017-09-10T13:10:01.701Z,2.00
2017-09-10T13:11:02.459Z,3.00
2017-09-10T13:12:03.186Z,3.00
2017-09-10T13:13:03.916Z,3.00